sensor_id;sensor_type;location;lat;lon;timestamp;temperature;humidity
21267;DHT22;10791;53.108;18.326;2023-07-13T00:02:25;16.40;99.90
21267;DHT22;10791;53.108;18.326;2023-07-13T00:07:30;16.40;99.90
21267;DHT22;10791;53.108;18.326;2023-07-13T00:12:36;16.30;99.90
21267;DHT22;10791;53.108;18.326;2023-07-13T00:17:40;16.20;99.90
21267;DHT22;10791;53.108;18.326;2023-07-13T00:22:44;16.20;99.90
21267;DHT22;10791;53.108;18.326;2023-07-13T00:27:50;16.20;99.90
21267;DHT22;10791;53.108;18.326;2023-07-13T00:32:54;16.20;99.90
21267;DHT22;10791;53.108;18.326;2023-07-13T00:38:10;16.20;99.90
21267;DHT22;10791;53.108;18.326;2023-07-13T00:43:16;16.10;99.90
21267;DHT22;10791;53.108;18.326;2023-07-13T00:48:25;16.00;99.90
21267;DHT22;10791;53.108;18.326;2023-07-13T00:53:33;16.00;99.90
21267;DHT22;10791;53.108;18.326;2023-07-13T00:58:37;16.00;99.90
21267;DHT22;10791;53.108;18.326;2023-07-13T01:03:40;15.90;99.90
21267;DHT22;10791;53.108;18.326;2023-07-13T01:08:44;15.90;99.90
21267;DHT22;10791;53.108;18.326;2023-07-13T01:13:48;15.90;99.90
21267;DHT22;10791;53.108;18.326;2023-07-13T01:18:51;15.80;99.90
21267;DHT22;10791;53.108;18.326;2023-07-13T01:23:54;15.70;99.90
21267;DHT22;10791;53.108;18.326;2023-07-13T01:28:58;15.60;99.90
21267;DHT22;10791;53.108;18.326;2023-07-13T01:34:02;15.60;99.90
21267;DHT22;10791;53.108;18.326;2023-07-13T01:39:05;15.50;99.90
21267;DHT22;10791;53.108;18.326;2023-07-13T01:44:10;15.50;99.90
21267;DHT22;10791;53.108;18.326;2023-07-13T01:49:13;15.50;99.90
21267;DHT22;10791;53.108;18.326;2023-07-13T01:54:17;15.40;99.90
21267;DHT22;10791;53.108;18.326;2023-07-13T01:59:20;15.40;99.90
21267;DHT22;10791;53.108;18.326;2023-07-13T02:04:23;15.40;99.90
21267;DHT22;10791;53.108;18.326;2023-07-13T02:09:27;15.40;99.90
21267;DHT22;10791;53.108;18.326;2023-07-13T02:14:31;15.40;99.90
21267;DHT22;10791;53.108;18.326;2023-07-13T02:19:34;15.40;99.90
21267;DHT22;10791;53.108;18.326;2023-07-13T02:24:37;15.40;99.90
21267;DHT22;10791;53.108;18.326;2023-07-13T02:29:41;15.40;99.90
21267;DHT22;10791;53.108;18.326;2023-07-13T02:34:44;15.50;99.90
21267;DHT22;10791;53.108;18.326;2023-07-13T02:39:48;15.50;99.90
21267;DHT22;10791;53.108;18.326;2023-07-13T02:44:51;15.50;99.90
21267;DHT22;10791;53.108;18.326;2023-07-13T02:49:55;15.40;99.90
21267;DHT22;10791;53.108;18.326;2023-07-13T02:54:58;15.40;99.90
21267;DHT22;10791;53.108;18.326;2023-07-13T03:00:03;15.40;99.90
21267;DHT22;10791;53.108;18.326;2023-07-13T03:05:11;15.40;99.90
21267;DHT22;10791;53.108;18.326;2023-07-13T03:10:15;15.50;99.90
21267;DHT22;10791;53.108;18.326;2023-07-13T03:15:19;15.50;99.90
21267;DHT22;10791;53.108;18.326;2023-07-13T03:20:24;15.50;99.90
21267;DHT22;10791;53.108;18.326;2023-07-13T03:25:28;15.60;99.90
21267;DHT22;10791;53.108;18.326;2023-07-13T03:30:31;15.60;99.90
21267;DHT22;10791;53.108;18.326;2023-07-13T03:35:35;15.60;99.90
21267;DHT22;10791;53.108;18.326;2023-07-13T03:40:43;15.70;99.90
21267;DHT22;10791;53.108;18.326;2023-07-13T03:45:46;15.80;99.90
21267;DHT22;10791;53.108;18.326;2023-07-13T03:50:50;15.90;99.90
21267;DHT22;10791;53.108;18.326;2023-07-13T03:55:53;16.10;99.90
21267;DHT22;10791;53.108;18.326;2023-07-13T04:00:57;16.20;99.90
21267;DHT22;10791;53.108;18.326;2023-07-13T04:06:03;16.30;99.90
21267;DHT22;10791;53.108;18.326;2023-07-13T04:11:07;16.40;99.90
21267;DHT22;10791;53.108;18.326;2023-07-13T04:16:10;16.50;99.90
21267;DHT22;10791;53.108;18.326;2023-07-13T04:21:15;16.50;99.90
21267;DHT22;10791;53.108;18.326;2023-07-13T04:26:19;16.60;99.90
21267;DHT22;10791;53.108;18.326;2023-07-13T04:31:24;16.70;99.90
21267;DHT22;10791;53.108;18.326;2023-07-13T04:36:27;16.70;99.90
21267;DHT22;10791;53.108;18.326;2023-07-13T04:41:31;16.80;99.90
21267;DHT22;10791;53.108;18.326;2023-07-13T04:46:34;16.80;99.90
21267;DHT22;10791;53.108;18.326;2023-07-13T04:51:37;16.90;99.90
21267;DHT22;10791;53.108;18.326;2023-07-13T04:56:41;18.40;99.90
21267;DHT22;10791;53.108;18.326;2023-07-13T05:01:44;20.70;99.90
21267;DHT22;10791;53.108;18.326;2023-07-13T05:06:47;21.80;99.90
21267;DHT22;10791;53.108;18.326;2023-07-13T05:11:51;21.30;99.90
21267;DHT22;10791;53.108;18.326;2023-07-13T05:16:54;20.60;99.90
21267;DHT22;10791;53.108;18.326;2023-07-13T05:22:00;21.30;99.90
21267;DHT22;10791;53.108;18.326;2023-07-13T05:27:04;22.10;99.90
21267;DHT22;10791;53.108;18.326;2023-07-13T05:32:07;21.80;99.90
21267;DHT22;10791;53.108;18.326;2023-07-13T05:37:11;21.40;99.90
21267;DHT22;10791;53.108;18.326;2023-07-13T05:42:14;20.90;99.90
21267;DHT22;10791;53.108;18.326;2023-07-13T05:47:18;20.80;99.90
21267;DHT22;10791;53.108;18.326;2023-07-13T05:52:21;20.80;99.90
21267;DHT22;10791;53.108;18.326;2023-07-13T05:57:24;20.70;99.90
21267;DHT22;10791;53.108;18.326;2023-07-13T06:02:28;20.50;99.90
21267;DHT22;10791;53.108;18.326;2023-07-13T06:07:31;20.50;99.90
21267;DHT22;10791;53.108;18.326;2023-07-13T06:12:35;20.50;99.90
21267;DHT22;10791;53.108;18.326;2023-07-13T06:17:38;20.60;99.90
21267;DHT22;10791;53.108;18.326;2023-07-13T06:22:42;20.70;99.90
21267;DHT22;10791;53.108;18.326;2023-07-13T06:27:45;21.00;99.90
21267;DHT22;10791;53.108;18.326;2023-07-13T06:32:48;21.00;99.90
21267;DHT22;10791;53.108;18.326;2023-07-13T06:37:53;21.00;99.90
21267;DHT22;10791;53.108;18.326;2023-07-13T06:42:57;21.10;99.90
21267;DHT22;10791;53.108;18.326;2023-07-13T06:48:00;21.30;99.90
21267;DHT22;10791;53.108;18.326;2023-07-13T06:53:04;21.50;99.90
21267;DHT22;10791;53.108;18.326;2023-07-13T06:58:07;21.50;99.90
21267;DHT22;10791;53.108;18.326;2023-07-13T07:03:11;21.60;99.90
21267;DHT22;10791;53.108;18.326;2023-07-13T07:08:14;21.60;99.90
21267;DHT22;10791;53.108;18.326;2023-07-13T07:13:18;21.70;99.90
21267;DHT22;10791;53.108;18.326;2023-07-13T07:18:21;21.80;99.90
21267;DHT22;10791;53.108;18.326;2023-07-13T07:23:25;22.00;99.90
21267;DHT22;10791;53.108;18.326;2023-07-13T07:28:28;22.20;99.90
21267;DHT22;10791;53.108;18.326;2023-07-13T07:33:45;22.50;99.90
21267;DHT22;10791;53.108;18.326;2023-07-13T07:38:48;22.60;99.90
21267;DHT22;10791;53.108;18.326;2023-07-13T07:43:51;22.80;99.90
21267;DHT22;10791;53.108;18.326;2023-07-13T07:48:55;23.00;99.90
21267;DHT22;10791;53.108;18.326;2023-07-13T07:53:58;23.20;99.90
21267;DHT22;10791;53.108;18.326;2023-07-13T07:59:02;23.40;99.90
21267;DHT22;10791;53.108;18.326;2023-07-13T08:04:09;23.60;99.90
21267;DHT22;10791;53.108;18.326;2023-07-13T08:09:32;23.70;99.90
21267;DHT22;10791;53.108;18.326;2023-07-13T08:14:35;23.80;99.90
21267;DHT22;10791;53.108;18.326;2023-07-13T08:19:55;23.90;99.90
21267;DHT22;10791;53.108;18.326;2023-07-13T08:24:59;23.90;99.90
21267;DHT22;10791;53.108;18.326;2023-07-13T08:30:04;23.90;99.90
21267;DHT22;10791;53.108;18.326;2023-07-13T08:35:08;23.80;99.90
21267;DHT22;10791;53.108;18.326;2023-07-13T08:40:12;23.90;99.90
21267;DHT22;10791;53.108;18.326;2023-07-13T08:51:04;24.40;99.90
21267;DHT22;10791;53.108;18.326;2023-07-13T08:56:16;24.70;99.90
21267;DHT22;10791;53.108;18.326;2023-07-13T09:01:23;25.00;99.90
21267;DHT22;10791;53.108;18.326;2023-07-13T09:06:34;25.20;99.90
21267;DHT22;10791;53.108;18.326;2023-07-13T09:12:18;25.50;99.90
21267;DHT22;10791;53.108;18.326;2023-07-13T09:17:29;25.90;99.90
21267;DHT22;10791;53.108;18.326;2023-07-13T09:22:37;26.10;99.90
21267;DHT22;10791;53.108;18.326;2023-07-13T09:27:44;25.80;99.90
21267;DHT22;10791;53.108;18.326;2023-07-13T09:32:52;25.80;99.90
21267;DHT22;10791;53.108;18.326;2023-07-13T09:38:13;26.00;98.40
21267;DHT22;10791;53.108;18.326;2023-07-13T09:43:17;26.20;96.50
21267;DHT22;10791;53.108;18.326;2023-07-13T09:48:22;26.00;96.70
21267;DHT22;10791;53.108;18.326;2023-07-13T09:53:31;25.70;95.30
21267;DHT22;10791;53.108;18.326;2023-07-13T09:58:35;25.30;99.10
21267;DHT22;10791;53.108;18.326;2023-07-13T10:03:39;24.80;99.90
21267;DHT22;10791;53.108;18.326;2023-07-13T10:08:56;24.50;99.90
21267;DHT22;10791;53.108;18.326;2023-07-13T10:19:21;23.40;99.90
21267;DHT22;10791;53.108;18.326;2023-07-13T10:24:33;22.80;99.90
21267;DHT22;10791;53.108;18.326;2023-07-13T10:30:00;22.40;99.90
21267;DHT22;10791;53.108;18.326;2023-07-13T10:35:05;22.20;99.90
21267;DHT22;10791;53.108;18.326;2023-07-13T10:40:20;22.20;99.90
21267;DHT22;10791;53.108;18.326;2023-07-13T11:20:21;21.50;99.90
21267;DHT22;10791;53.108;18.326;2023-07-13T11:25:32;21.50;99.90
21267;DHT22;10791;53.108;18.326;2023-07-13T11:30:59;21.50;99.90
21267;DHT22;10791;53.108;18.326;2023-07-13T11:36:23;21.70;99.90
21267;DHT22;10791;53.108;18.326;2023-07-13T11:42:07;22.00;99.90
21267;DHT22;10791;53.108;18.326;2023-07-13T11:47:17;22.40;99.90
21267;DHT22;10791;53.108;18.326;2023-07-13T11:52:29;22.70;99.90
21267;DHT22;10791;53.108;18.326;2023-07-13T11:57:40;22.90;99.90
21267;DHT22;10791;53.108;18.326;2023-07-13T12:02:47;23.00;99.90
21267;DHT22;10791;53.108;18.326;2023-07-13T12:07:53;22.90;99.90
21267;DHT22;10791;53.108;18.326;2023-07-13T12:13:04;22.80;99.90
21267;DHT22;10791;53.108;18.326;2023-07-13T12:18:21;22.90;99.90
21267;DHT22;10791;53.108;18.326;2023-07-13T12:23:34;23.10;99.90
21267;DHT22;10791;53.108;18.326;2023-07-13T12:28:54;23.30;99.90
21267;DHT22;10791;53.108;18.326;2023-07-13T12:34:12;23.70;99.90
21267;DHT22;10791;53.108;18.326;2023-07-13T12:39:28;24.40;99.90
21267;DHT22;10791;53.108;18.326;2023-07-13T12:44:44;25.10;99.90
21267;DHT22;10791;53.108;18.326;2023-07-13T12:49:53;25.80;99.90
21267;DHT22;10791;53.108;18.326;2023-07-13T12:55:01;26.30;99.90
21267;DHT22;10791;53.108;18.326;2023-07-13T13:00:28;26.50;99.10
21267;DHT22;10791;53.108;18.326;2023-07-13T13:05:32;26.50;94.90
21267;DHT22;10791;53.108;18.326;2023-07-13T13:10:37;26.20;93.90
21267;DHT22;10791;53.108;18.326;2023-07-13T13:15:42;25.80;93.40
21267;DHT22;10791;53.108;18.326;2023-07-13T13:20:46;25.60;93.70
21267;DHT22;10791;53.108;18.326;2023-07-13T13:25:51;25.40;93.70
21267;DHT22;10791;53.108;18.326;2023-07-13T13:31:01;24.90;99.90
21267;DHT22;10791;53.108;18.326;2023-07-13T13:36:07;22.80;99.90
21267;DHT22;10791;53.108;18.326;2023-07-13T13:41:27;20.90;99.90
21267;DHT22;10791;53.108;18.326;2023-07-13T13:46:31;20.10;99.90
21267;DHT22;10791;53.108;18.326;2023-07-13T13:51:39;19.90;99.90
21267;DHT22;10791;53.108;18.326;2023-07-13T13:56:45;20.10;99.90
21267;DHT22;10791;53.108;18.326;2023-07-13T14:01:50;20.30;99.90
21267;DHT22;10791;53.108;18.326;2023-07-13T14:06:55;20.50;99.90
21267;DHT22;10791;53.108;18.326;2023-07-13T14:11:59;20.90;99.90
21267;DHT22;10791;53.108;18.326;2023-07-13T14:17:03;21.50;99.90
21267;DHT22;10791;53.108;18.326;2023-07-13T14:22:08;22.00;99.90
21267;DHT22;10791;53.108;18.326;2023-07-13T14:27:11;22.60;99.90
21267;DHT22;10791;53.108;18.326;2023-07-13T14:32:16;23.30;99.90
21267;DHT22;10791;53.108;18.326;2023-07-13T14:37:19;24.00;99.90
21267;DHT22;10791;53.108;18.326;2023-07-13T14:42:23;24.50;99.90
21267;DHT22;10791;53.108;18.326;2023-07-13T14:47:27;24.90;99.90
21267;DHT22;10791;53.108;18.326;2023-07-13T14:52:31;25.30;99.90
21267;DHT22;10791;53.108;18.326;2023-07-13T15:01:41;25.20;99.90
21267;DHT22;10791;53.108;18.326;2023-07-13T15:06:57;25.40;99.90
21267;DHT22;10791;53.108;18.326;2023-07-13T15:12:04;25.90;99.90
21267;DHT22;10791;53.108;18.326;2023-07-13T15:17:37;26.70;99.90
21267;DHT22;10791;53.108;18.326;2023-07-13T15:23:01;27.70;99.90
21267;DHT22;10791;53.108;18.326;2023-07-13T15:28:26;28.70;96.70
21267;DHT22;10791;53.108;18.326;2023-07-13T15:33:30;29.50;90.20
21267;DHT22;10791;53.108;18.326;2023-07-13T15:38:34;30.20;84.10
21267;DHT22;10791;53.108;18.326;2023-07-13T15:43:41;31.30;73.40
21267;DHT22;10791;53.108;18.326;2023-07-13T15:48:46;32.60;73.40
21267;DHT22;10791;53.108;18.326;2023-07-13T15:53:50;32.90;66.70
21267;DHT22;10791;53.108;18.326;2023-07-13T15:58:54;32.30;68.00
21267;DHT22;10791;53.108;18.326;2023-07-13T16:03:59;31.80;67.50
21267;DHT22;10791;53.108;18.326;2023-07-13T16:09:04;29.90;70.70
21267;DHT22;10791;53.108;18.326;2023-07-13T16:14:13;29.10;74.00
21267;DHT22;10791;53.108;18.326;2023-07-13T16:19:17;29.00;74.00
21267;DHT22;10791;53.108;18.326;2023-07-13T16:24:22;30.10;71.70
21267;DHT22;10791;53.108;18.326;2023-07-13T16:29:30;29.80;69.80
21267;DHT22;10791;53.108;18.326;2023-07-13T16:34:35;28.90;72.70
21267;DHT22;10791;53.108;18.326;2023-07-13T16:39:48;28.40;73.60
21267;DHT22;10791;53.108;18.326;2023-07-13T16:44:52;28.00;74.80
21267;DHT22;10791;53.108;18.326;2023-07-13T16:49:57;27.40;78.60
21267;DHT22;10791;53.108;18.326;2023-07-13T16:55:01;27.70;78.30
21267;DHT22;10791;53.108;18.326;2023-07-13T17:00:22;28.20;78.40
21267;DHT22;10791;53.108;18.326;2023-07-13T17:05:41;28.80;74.50
21267;DHT22;10791;53.108;18.326;2023-07-13T17:10:55;29.20;74.00
21267;DHT22;10791;53.108;18.326;2023-07-13T17:15:59;29.40;70.70
21267;DHT22;10791;53.108;18.326;2023-07-13T17:21:12;29.60;70.30
21267;DHT22;10791;53.108;18.326;2023-07-13T17:26:17;30.00;67.30
21267;DHT22;10791;53.108;18.326;2023-07-13T17:31:21;30.30;59.20
21267;DHT22;10791;53.108;18.326;2023-07-13T17:36:25;30.30;58.80
21267;DHT22;10791;53.108;18.326;2023-07-13T17:41:29;30.60;56.90
21267;DHT22;10791;53.108;18.326;2023-07-13T17:46:34;30.40;56.50
21267;DHT22;10791;53.108;18.326;2023-07-13T17:51:38;29.60;58.10
21267;DHT22;10791;53.108;18.326;2023-07-13T17:56:43;29.10;58.10
21267;DHT22;10791;53.108;18.326;2023-07-13T18:01:47;28.90;58.40
21267;DHT22;10791;53.108;18.326;2023-07-13T18:06:52;28.20;58.90
21267;DHT22;10791;53.108;18.326;2023-07-13T18:11:58;27.70;60.00
21267;DHT22;10791;53.108;18.326;2023-07-13T18:17:02;27.30;60.20
21267;DHT22;10791;53.108;18.326;2023-07-13T18:25:38;25.90;63.90
21267;DHT22;10791;53.108;18.326;2023-07-13T18:30:44;25.20;66.90
21267;DHT22;10791;53.108;18.326;2023-07-13T18:35:50;24.60;69.80
21267;DHT22;10791;53.108;18.326;2023-07-13T18:40:55;24.20;73.70
21267;DHT22;10791;53.108;18.326;2023-07-13T18:46:03;23.90;77.70
21267;DHT22;10791;53.108;18.326;2023-07-13T18:51:13;23.50;80.50
21267;DHT22;10791;53.108;18.326;2023-07-13T18:56:17;23.10;84.00
21267;DHT22;10791;53.108;18.326;2023-07-13T19:01:32;22.70;89.40
21267;DHT22;10791;53.108;18.326;2023-07-13T19:06:39;22.40;90.70
21267;DHT22;10791;53.108;18.326;2023-07-13T19:11:42;22.10;91.10
21267;DHT22;10791;53.108;18.326;2023-07-13T19:16:46;21.90;91.50
21267;DHT22;10791;53.108;18.326;2023-07-13T19:21:51;21.60;94.20
21267;DHT22;10791;53.108;18.326;2023-07-13T19:26:59;21.40;96.00
21267;DHT22;10791;53.108;18.326;2023-07-13T19:32:04;21.10;96.90
21267;DHT22;10791;53.108;18.326;2023-07-13T19:37:23;20.90;98.60
21267;DHT22;10791;53.108;18.326;2023-07-13T19:42:27;20.80;99.90
21267;DHT22;10791;53.108;18.326;2023-07-13T19:47:33;20.70;99.90
21267;DHT22;10791;53.108;18.326;2023-07-13T19:52:43;20.50;99.90
21267;DHT22;10791;53.108;18.326;2023-07-13T19:57:49;20.30;99.90
21267;DHT22;10791;53.108;18.326;2023-07-13T20:02:59;20.20;99.90
21267;DHT22;10791;53.108;18.326;2023-07-13T20:08:16;20.00;99.90
21267;DHT22;10791;53.108;18.326;2023-07-13T20:13:22;20.00;99.90
21267;DHT22;10791;53.108;18.326;2023-07-13T20:18:29;19.90;99.90
21267;DHT22;10791;53.108;18.326;2023-07-13T20:23:33;19.70;99.90
21267;DHT22;10791;53.108;18.326;2023-07-13T20:28:38;19.60;99.90
21267;DHT22;10791;53.108;18.326;2023-07-13T20:33:45;19.50;99.90
21267;DHT22;10791;53.108;18.326;2023-07-13T20:38:48;19.50;99.90
21267;DHT22;10791;53.108;18.326;2023-07-13T20:43:52;19.50;99.90
21267;DHT22;10791;53.108;18.326;2023-07-13T20:48:56;19.40;99.90
21267;DHT22;10791;53.108;18.326;2023-07-13T20:54:00;19.30;99.90
21267;DHT22;10791;53.108;18.326;2023-07-13T20:59:03;19.00;99.90
21267;DHT22;10791;53.108;18.326;2023-07-13T21:04:11;18.90;99.90
21267;DHT22;10791;53.108;18.326;2023-07-13T21:09:19;18.70;99.90
21267;DHT22;10791;53.108;18.326;2023-07-13T21:14:26;18.60;99.90
21267;DHT22;10791;53.108;18.326;2023-07-13T21:19:30;18.60;99.90
21267;DHT22;10791;53.108;18.326;2023-07-13T21:24:34;18.60;99.90
21267;DHT22;10791;53.108;18.326;2023-07-13T21:29:38;18.60;99.90
21267;DHT22;10791;53.108;18.326;2023-07-13T21:34:41;18.70;99.90
21267;DHT22;10791;53.108;18.326;2023-07-13T21:39:49;18.90;99.90
21267;DHT22;10791;53.108;18.326;2023-07-13T21:44:53;19.10;99.90
21267;DHT22;10791;53.108;18.326;2023-07-13T21:49:56;19.30;99.90
21267;DHT22;10791;53.108;18.326;2023-07-13T21:55:00;19.40;99.90
21267;DHT22;10791;53.108;18.326;2023-07-13T22:00:03;19.60;99.90
21267;DHT22;10791;53.108;18.326;2023-07-13T22:05:17;19.50;99.90
21267;DHT22;10791;53.108;18.326;2023-07-13T22:10:21;19.30;99.90
21267;DHT22;10791;53.108;18.326;2023-07-13T22:15:26;19.10;99.90
21267;DHT22;10791;53.108;18.326;2023-07-13T22:20:32;19.00;99.90
21267;DHT22;10791;53.108;18.326;2023-07-13T22:25:35;18.90;99.90
21267;DHT22;10791;53.108;18.326;2023-07-13T22:30:38;18.80;99.90
21267;DHT22;10791;53.108;18.326;2023-07-13T22:35:41;18.70;99.90
21267;DHT22;10791;53.108;18.326;2023-07-13T22:40:45;18.50;99.90
21267;DHT22;10791;53.108;18.326;2023-07-13T22:45:59;18.20;99.90
21267;DHT22;10791;53.108;18.326;2023-07-13T22:51:04;18.00;99.90
21267;DHT22;10791;53.108;18.326;2023-07-13T22:56:13;17.80;99.90
21267;DHT22;10791;53.108;18.326;2023-07-13T23:01:21;17.70;99.90
21267;DHT22;10791;53.108;18.326;2023-07-13T23:06:35;17.60;99.90
21267;DHT22;10791;53.108;18.326;2023-07-13T23:11:38;17.50;99.90
21267;DHT22;10791;53.108;18.326;2023-07-13T23:16:41;17.40;99.90
21267;DHT22;10791;53.108;18.326;2023-07-13T23:21:47;17.30;99.90
21267;DHT22;10791;53.108;18.326;2023-07-13T23:26:51;17.10;99.90
21267;DHT22;10791;53.108;18.326;2023-07-13T23:31:55;16.90;99.90
21267;DHT22;10791;53.108;18.326;2023-07-13T23:36:58;16.80;99.90
21267;DHT22;10791;53.108;18.326;2023-07-13T23:42:01;16.70;99.90
21267;DHT22;10791;53.108;18.326;2023-07-13T23:47:05;16.60;99.90
21267;DHT22;10791;53.108;18.326;2023-07-13T23:52:11;16.50;99.90
21267;DHT22;10791;53.108;18.326;2023-07-13T23:57:15;16.40;99.90
